sensor_id;sensor_type;location;lat;lon;timestamp;pressure;altitude;pressure_sealevel;temperature;humidity
69982;BME280;57319;56.274;43.980;2024-03-29T00:00:41;99575.72;;;1.55;59.14
69982;BME280;57319;56.274;43.980;2024-03-29T00:03:09;99581.03;;;1.67;56.26
69982;BME280;57319;56.274;43.980;2024-03-29T00:05:36;99581.94;;;1.69;55.86
69982;BME280;57319;56.274;43.980;2024-03-29T00:08:03;99582.69;;;1.65;56.83
69982;BME280;57319;56.274;43.980;2024-03-29T00:10:28;99584.28;;;1.60;56.47
69982;BME280;57319;56.274;43.980;2024-03-29T00:12:54;99581.72;;;1.58;56.08
69982;BME280;57319;56.274;43.980;2024-03-29T00:15:20;99579.81;;;1.49;57.29
69982;BME280;57319;56.274;43.980;2024-03-29T00:17:45;99582.38;;;1.51;57.69
69982;BME280;57319;56.274;43.980;2024-03-29T00:20:11;99578.22;;;1.53;56.86
69982;BME280;57319;56.274;43.980;2024-03-29T00:22:37;99574.00;;;1.55;56.02
69982;BME280;57319;56.274;43.980;2024-03-29T00:25:03;99577.50;;;1.60;55.80
69982;BME280;57319;56.274;43.980;2024-03-29T00:27:31;99579.09;;;1.55;57.71
69982;BME280;57319;56.274;43.980;2024-03-29T00:29:58;99577.09;;;1.40;58.87
69982;BME280;57319;56.274;43.980;2024-03-29T00:32:24;99582.19;;;1.40;57.86
69982;BME280;57319;56.274;43.980;2024-03-29T00:34:51;99567.00;;;1.42;56.87
69982;BME280;57319;56.274;43.980;2024-03-29T00:37:18;99563.34;;;1.30;58.25
69982;BME280;57319;56.274;43.980;2024-03-29T00:39:44;99578.72;;;1.37;56.93
69982;BME280;57319;56.274;43.980;2024-03-29T00:42:09;99573.72;;;1.41;56.57
69982;BME280;57319;56.274;43.980;2024-03-29T00:44:38;99572.06;;;1.42;56.20
69982;BME280;57319;56.274;43.980;2024-03-29T00:47:05;99575.44;;;1.42;58.13
69982;BME280;57319;56.274;43.980;2024-03-29T00:49:30;99573.00;;;1.47;57.33
69982;BME280;57319;56.274;43.980;2024-03-29T00:51:56;99572.97;;;1.45;56.85
69982;BME280;57319;56.274;43.980;2024-03-29T00:54:22;99565.34;;;1.44;56.14
69982;BME280;57319;56.274;43.980;2024-03-29T00:56:49;99560.22;;;1.42;56.38
69982;BME280;57319;56.274;43.980;2024-03-29T00:59:15;99558.44;;;1.38;56.99
69982;BME280;57319;56.274;43.980;2024-03-29T01:01:41;99552.56;;;1.39;56.02
69982;BME280;57319;56.274;43.980;2024-03-29T01:04:07;99547.47;;;1.38;56.92
69982;BME280;57319;56.274;43.980;2024-03-29T01:06:33;99554.28;;;1.40;56.82
69982;BME280;57319;56.274;43.980;2024-03-29T01:09:00;99549.25;;;1.42;55.88
69982;BME280;57319;56.274;43.980;2024-03-29T01:11:26;99549.09;;;1.35;57.31
69982;BME280;57319;56.274;43.980;2024-03-29T01:13:52;99550.78;;;1.35;59.57
69982;BME280;57319;56.274;43.980;2024-03-29T01:16:18;99548.09;;;1.29;58.11
69982;BME280;57319;56.274;43.980;2024-03-29T01:18:44;99542.22;;;1.30;56.38
69982;BME280;57319;56.274;43.980;2024-03-29T01:21:12;99542.22;;;1.30;58.06
69982;BME280;57319;56.274;43.980;2024-03-29T01:23:38;99536.19;;;1.25;57.52
69982;BME280;57319;56.274;43.980;2024-03-29T01:26:05;99537.69;;;1.16;58.38
69982;BME280;57319;56.274;43.980;2024-03-29T01:28:31;99542.66;;;1.10;58.25
69982;BME280;57319;56.274;43.980;2024-03-29T01:30:57;99536.63;;;1.07;57.17
69982;BME280;57319;56.274;43.980;2024-03-29T01:33:24;99534.22;;;1.11;56.92
69982;BME280;57319;56.274;43.980;2024-03-29T01:35:50;99534.97;;;1.07;56.72
69982;BME280;57319;56.274;43.980;2024-03-29T01:38:16;99544.22;;;1.05;57.38
69982;BME280;57319;56.274;43.980;2024-03-29T01:40:41;99540.16;;;1.12;57.03
69982;BME280;57319;56.274;43.980;2024-03-29T01:43:07;99532.63;;;1.16;56.79
69982;BME280;57319;56.274;43.980;2024-03-29T01:45:38;99538.56;;;1.17;56.44
69982;BME280;57319;56.274;43.980;2024-03-29T01:48:05;99536.75;;;1.11;56.45
69982;BME280;57319;56.274;43.980;2024-03-29T01:50:32;99532.31;;;1.02;56.76
69982;BME280;57319;56.274;43.980;2024-03-29T01:52:58;99527.03;;;0.93;58.08
69982;BME280;57319;56.274;43.980;2024-03-29T01:55:24;99530.16;;;0.81;59.27
69982;BME280;57319;56.274;43.980;2024-03-29T01:57:50;99532.34;;;0.66;62.55
69982;BME280;57319;56.274;43.980;2024-03-29T02:00:17;99534.63;;;0.55;62.92
69982;BME280;57319;56.274;43.980;2024-03-29T02:02:43;99530.16;;;0.45;63.39
69982;BME280;57319;56.274;43.980;2024-03-29T02:05:09;99534.97;;;0.36;63.55
69982;BME280;57319;56.274;43.980;2024-03-29T02:07:35;99532.81;;;0.16;67.86
69982;BME280;57319;56.274;43.980;2024-03-29T02:10:02;99536.09;;;0.13;67.11
69982;BME280;57319;56.274;43.980;2024-03-29T02:12:31;99526.66;;;0.06;66.82
69982;BME280;57319;56.274;43.980;2024-03-29T02:14:57;99533.19;;;-0.02;70.10
69982;BME280;57319;56.274;43.980;2024-03-29T02:17:24;99531.41;;;-0.05;68.21
69982;BME280;57319;56.274;43.980;2024-03-29T02:19:50;99538.03;;;-0.10;69.23
69982;BME280;57319;56.274;43.980;2024-03-29T02:22:17;99543.00;;;-0.13;68.04
69982;BME280;57319;56.274;43.980;2024-03-29T02:24:44;99546.31;;;-0.15;66.69
69982;BME280;57319;56.274;43.980;2024-03-29T02:27:09;99536.03;;;-0.22;66.26
69982;BME280;57319;56.274;43.980;2024-03-29T02:29:35;99537.63;;;-0.25;65.99
69982;BME280;57319;56.274;43.980;2024-03-29T02:32:05;99541.09;;;-0.22;65.17
69982;BME280;57319;56.274;43.980;2024-03-29T02:34:30;99537.84;;;-0.18;64.66
69982;BME280;57319;56.274;43.980;2024-03-29T02:36:56;99536.06;;;-0.20;65.49
69982;BME280;57319;56.274;43.980;2024-03-29T02:39:22;99532.56;;;-0.25;66.23
69982;BME280;57319;56.274;43.980;2024-03-29T02:41:48;99535.09;;;-0.25;66.43
69982;BME280;57319;56.274;43.980;2024-03-29T02:44:14;99536.03;;;-0.22;65.72
69982;BME280;57319;56.274;43.980;2024-03-29T02:46:42;99537.84;;;-0.18;65.37
69982;BME280;57319;56.274;43.980;2024-03-29T02:49:08;99544.81;;;-0.09;64.89
69982;BME280;57319;56.274;43.980;2024-03-29T02:51:34;99538.34;;;0.03;64.61
69982;BME280;57319;56.274;43.980;2024-03-29T02:54:00;99538.63;;;0.13;63.41
69982;BME280;57319;56.274;43.980;2024-03-29T02:56:26;99537.88;;;0.16;63.65
69982;BME280;57319;56.274;43.980;2024-03-29T02:58:53;99541.34;;;0.20;63.73
69982;BME280;57319;56.274;43.980;2024-03-29T03:01:19;99533.69;;;0.16;64.37
69982;BME280;57319;56.274;43.980;2024-03-29T03:03:44;99543.91;;;0.21;64.69
69982;BME280;57319;56.274;43.980;2024-03-29T03:06:10;99532.88;;;0.19;65.83
69982;BME280;57319;56.274;43.980;2024-03-29T03:08:36;99535.34;;;0.16;65.59
69982;BME280;57319;56.274;43.980;2024-03-29T03:11:20;99532.63;;;0.08;66.48
69982;BME280;57319;56.274;43.980;2024-03-29T03:13:46;99535.09;;;0.07;67.57
69982;BME280;57319;56.274;43.980;2024-03-29T03:16:11;99538.22;;;-0.04;69.45
69982;BME280;57319;56.274;43.980;2024-03-29T03:18:37;99534.13;;;0.02;68.99
69982;BME280;57319;56.274;43.980;2024-03-29T03:21:03;99538.47;;;0.06;68.72
69982;BME280;57319;56.274;43.980;2024-03-29T03:23:28;99540.06;;;0.04;69.50
69982;BME280;57319;56.274;43.980;2024-03-29T03:25:58;99548.69;;;0.10;68.19
69982;BME280;57319;56.274;43.980;2024-03-29T03:28:24;99545.28;;;0.08;69.36
69982;BME280;57319;56.274;43.980;2024-03-29T03:30:51;99544.53;;;0.12;69.38
69982;BME280;57319;56.274;43.980;2024-03-29T03:33:17;99541.16;;;0.13;69.68
69982;BME280;57319;56.274;43.980;2024-03-29T03:35:43;99536.28;;;0.20;68.73
69982;BME280;57319;56.274;43.980;2024-03-29T03:38:09;99538.06;;;0.24;68.33
69982;BME280;57319;56.274;43.980;2024-03-29T03:40:35;99539.19;;;0.35;66.22
69982;BME280;57319;56.274;43.980;2024-03-29T03:43:05;99543.41;;;0.35;66.36
69982;BME280;57319;56.274;43.980;2024-03-29T03:45:40;99542.78;;;0.43;65.52
69982;BME280;57319;56.274;43.980;2024-03-29T03:48:10;99542.19;;;0.54;64.81
69982;BME280;57319;56.274;43.980;2024-03-29T03:50:37;99539.91;;;0.64;63.87
69982;BME280;57319;56.274;43.980;2024-03-29T03:53:02;99538.47;;;0.74;63.46
69982;BME280;57319;56.274;43.980;2024-03-29T03:55:28;99538.66;;;0.83;62.51
69982;BME280;57319;56.274;43.980;2024-03-29T03:57:54;99536.34;;;0.93;62.41
69982;BME280;57319;56.274;43.980;2024-03-29T04:00:22;99537.38;;;1.01;61.74
69982;BME280;57319;56.274;43.980;2024-03-29T04:02:49;99532.47;;;1.09;61.53
69982;BME280;57319;56.274;43.980;2024-03-29T04:05:19;99531.72;;;1.13;61.18
69982;BME280;57319;56.274;43.980;2024-03-29T04:07:45;99523.50;;;1.25;60.84
69982;BME280;57319;56.274;43.980;2024-03-29T04:10:11;99525.44;;;1.35;60.36
69982;BME280;57319;56.274;43.980;2024-03-29T04:12:38;99518.81;;;1.42;60.19
69982;BME280;57319;56.274;43.980;2024-03-29T04:15:04;99518.00;;;1.44;60.04
69982;BME280;57319;56.274;43.980;2024-03-29T04:17:31;99509.66;;;1.50;59.83
69982;BME280;57319;56.274;43.980;2024-03-29T04:19:58;99511.66;;;1.65;59.01
69982;BME280;57319;56.274;43.980;2024-03-29T04:22:24;99510.16;;;1.75;58.49
69982;BME280;57319;56.274;43.980;2024-03-29T04:24:50;99507.81;;;1.85;58.28
69982;BME280;57319;56.274;43.980;2024-03-29T04:27:15;99502.00;;;1.93;57.94
69982;BME280;57319;56.274;43.980;2024-03-29T04:29:41;99503.00;;;2.01;57.73
69982;BME280;57319;56.274;43.980;2024-03-29T04:32:08;99497.25;;;2.11;57.81
69982;BME280;57319;56.274;43.980;2024-03-29T04:34:33;99502.44;;;2.17;57.86
69982;BME280;57319;56.274;43.980;2024-03-29T04:36:59;99500.91;;;2.27;57.02
69982;BME280;57319;56.274;43.980;2024-03-29T04:39:25;99503.47;;;2.27;56.77
69982;BME280;57319;56.274;43.980;2024-03-29T04:41:50;99502.88;;;2.44;56.25
69982;BME280;57319;56.274;43.980;2024-03-29T04:44:25;99499.63;;;2.54;56.44
69982;BME280;57319;56.274;43.980;2024-03-29T04:46:51;99502.44;;;2.69;55.78
69982;BME280;57319;56.274;43.980;2024-03-29T04:49:23;99507.56;;;2.72;57.26
69982;BME280;57319;56.274;43.980;2024-03-29T04:51:57;99512.00;;;2.86;56.01
69982;BME280;57319;56.274;43.980;2024-03-29T04:54:23;99504.53;;;2.97;55.25
69982;BME280;57319;56.274;43.980;2024-03-29T04:56:49;99509.78;;;3.09;54.80
69982;BME280;57319;56.274;43.980;2024-03-29T04:59:14;99511.44;;;3.07;54.32
69982;BME280;57319;56.274;43.980;2024-03-29T05:01:43;99515.88;;;3.20;54.49
69982;BME280;57319;56.274;43.980;2024-03-29T05:04:10;99516.88;;;3.33;54.01
69982;BME280;57319;56.274;43.980;2024-03-29T05:06:36;99517.00;;;3.43;53.00
69982;BME280;57319;56.274;43.980;2024-03-29T05:09:01;99520.47;;;3.48;52.50
69982;BME280;57319;56.274;43.980;2024-03-29T05:11:27;99513.69;;;3.50;53.10
69982;BME280;57319;56.274;43.980;2024-03-29T05:13:53;99513.84;;;3.65;51.85
69982;BME280;57319;56.274;43.980;2024-03-29T05:16:18;99516.41;;;3.65;52.25
69982;BME280;57319;56.274;43.980;2024-03-29T05:18:47;99510.59;;;3.74;50.58
69982;BME280;57319;56.274;43.980;2024-03-29T05:21:13;99515.84;;;3.91;49.70
69982;BME280;57319;56.274;43.980;2024-03-29T05:23:39;99508.34;;;4.05;50.23
69982;BME280;57319;56.274;43.980;2024-03-29T05:26:04;99516.97;;;4.18;49.34
69982;BME280;57319;56.274;43.980;2024-03-29T05:28:30;99506.78;;;4.16;47.73
69982;BME280;57319;56.274;43.980;2024-03-29T05:30:56;99512.81;;;4.29;47.27
69982;BME280;57319;56.274;43.980;2024-03-29T05:33:21;99502.75;;;4.46;47.34
69982;BME280;57319;56.274;43.980;2024-03-29T05:35:47;99501.19;;;4.59;47.37
69982;BME280;57319;56.274;43.980;2024-03-29T05:38:13;99501.19;;;4.64;46.84
69982;BME280;57319;56.274;43.980;2024-03-29T05:40:39;99494.34;;;4.56;46.22
69982;BME280;57319;56.274;43.980;2024-03-29T05:43:04;99495.34;;;4.74;46.71
69982;BME280;57319;56.274;43.980;2024-03-29T05:45:31;99495.31;;;4.72;46.05
69982;BME280;57319;56.274;43.980;2024-03-29T05:47:58;99484.34;;;4.81;45.80
69982;BME280;57319;56.274;43.980;2024-03-29T05:50:25;99484.38;;;4.89;46.18
69982;BME280;57319;56.274;43.980;2024-03-29T05:52:52;99477.66;;;4.99;46.05
69982;BME280;57319;56.274;43.980;2024-03-29T05:55:18;99481.94;;;5.07;45.77
69982;BME280;57319;56.274;43.980;2024-03-29T05:57:44;99471.72;;;5.09;45.52
69982;BME280;57319;56.274;43.980;2024-03-29T06:00:14;99477.72;;;5.14;45.57
69982;BME280;57319;56.274;43.980;2024-03-29T06:02:41;99476.06;;;5.19;45.81
69982;BME280;57319;56.274;43.980;2024-03-29T06:05:09;99469.22;;;5.17;46.52
69982;BME280;57319;56.274;43.980;2024-03-29T06:07:35;99462.47;;;5.30;45.92
69982;BME280;57319;56.274;43.980;2024-03-29T06:10:01;99464.19;;;5.29;44.85
69982;BME280;57319;56.274;43.980;2024-03-29T06:12:34;99454.84;;;5.36;45.61
69982;BME280;57319;56.274;43.980;2024-03-29T06:15:05;99462.47;;;5.28;46.36
69982;BME280;57319;56.274;43.980;2024-03-29T06:17:50;99458.28;;;5.49;45.93
69982;BME280;57319;56.274;43.980;2024-03-29T06:20:15;99449.78;;;5.50;45.33
69982;BME280;57319;56.274;43.980;2024-03-29T06:22:41;99453.97;;;5.28;45.29
69982;BME280;57319;56.274;43.980;2024-03-29T06:25:07;99457.44;;;5.53;45.40
69982;BME280;57319;56.274;43.980;2024-03-29T06:27:36;99459.13;;;5.40;44.39
69982;BME280;57319;56.274;43.980;2024-03-29T06:30:05;99451.47;;;5.49;44.58
69982;BME280;57319;56.274;43.980;2024-03-29T06:32:32;99448.09;;;5.64;44.70
69982;BME280;57319;56.274;43.980;2024-03-29T06:34:58;99445.59;;;5.73;44.77
69982;BME280;57319;56.274;43.980;2024-03-29T06:37:26;99437.91;;;5.80;45.01
69982;BME280;57319;56.274;43.980;2024-03-29T06:39:54;99429.44;;;5.87;45.33
69982;BME280;57319;56.274;43.980;2024-03-29T06:42:19;99428.59;;;5.95;44.66
69982;BME280;57319;56.274;43.980;2024-03-29T06:44:45;99430.31;;;6.03;44.46
69982;BME280;57319;56.274;43.980;2024-03-29T06:47:11;99426.91;;;6.08;44.54
69982;BME280;57319;56.274;43.980;2024-03-29T06:49:37;99427.78;;;6.07;44.47
69982;BME280;57319;56.274;43.980;2024-03-29T06:52:03;99421.81;;;6.05;44.36
69982;BME280;57319;56.274;43.980;2024-03-29T06:54:29;99419.25;;;6.05;43.74
69982;BME280;57319;56.274;43.980;2024-03-29T06:56:55;99416.72;;;5.99;43.73
69982;BME280;57319;56.274;43.980;2024-03-29T06:59:21;99414.16;;;6.15;43.52
69982;BME280;57319;56.274;43.980;2024-03-29T07:01:48;99414.16;;;6.27;44.03
69982;BME280;57319;56.274;43.980;2024-03-29T07:04:18;99414.16;;;6.15;43.05
69982;BME280;57319;56.274;43.980;2024-03-29T07:06:45;99417.56;;;6.32;43.41
69982;BME280;57319;56.274;43.980;2024-03-29T07:09:13;99419.25;;;6.41;43.64
69982;BME280;57319;56.274;43.980;2024-03-29T07:11:40;99420.94;;;6.53;42.87
69982;BME280;57319;56.274;43.980;2024-03-29T07:14:06;99412.41;;;6.57;42.80
69982;BME280;57319;56.274;43.980;2024-03-29T07:16:32;99409.84;;;6.61;42.95
69982;BME280;57319;56.274;43.980;2024-03-29T07:18:57;99406.41;;;6.75;43.07
69982;BME280;57319;56.274;43.980;2024-03-29T07:21:24;99405.53;;;6.81;42.20
69982;BME280;57319;56.274;43.980;2024-03-29T07:23:50;99399.53;;;6.85;41.66
69982;BME280;57319;56.274;43.980;2024-03-29T07:26:16;99390.16;;;6.90;41.52
69982;BME280;57319;56.274;43.980;2024-03-29T07:28:42;99385.00;;;6.96;41.98
69982;BME280;57319;56.274;43.980;2024-03-29T07:31:08;99381.56;;;7.02;41.50
69982;BME280;57319;56.274;43.980;2024-03-29T07:33:36;99373.13;;;6.84;41.20
69982;BME280;57319;56.274;43.980;2024-03-29T07:36:02;99373.00;;;7.06;41.57
69982;BME280;57319;56.274;43.980;2024-03-29T07:38:29;99383.22;;;7.15;41.43
69982;BME280;57319;56.274;43.980;2024-03-29T07:40:55;99382.31;;;7.22;41.06
69982;BME280;57319;56.274;43.980;2024-03-29T07:43:22;99376.34;;;7.22;41.21
69982;BME280;57319;56.274;43.980;2024-03-29T07:45:47;99368.66;;;7.26;40.83
69982;BME280;57319;56.274;43.980;2024-03-29T07:48:15;99362.69;;;7.26;40.54
69982;BME280;57319;56.274;43.980;2024-03-29T07:50:45;99357.53;;;7.29;40.79
69982;BME280;57319;56.274;43.980;2024-03-29T07:53:11;99361.84;;;7.25;40.45
69982;BME280;57319;56.274;43.980;2024-03-29T07:55:38;99359.34;;;7.11;40.34
69982;BME280;57319;56.274;43.980;2024-03-29T07:58:05;99357.56;;;7.27;40.43
69982;BME280;57319;56.274;43.980;2024-03-29T08:00:32;99349.84;;;7.34;40.38
69982;BME280;57319;56.274;43.980;2024-03-29T08:02:58;99348.97;;;7.39;39.73
69982;BME280;57319;56.274;43.980;2024-03-29T08:05:24;99342.06;;;7.51;40.01
69982;BME280;57319;56.274;43.980;2024-03-29T08:07:50;99337.78;;;7.51;40.26
69982;BME280;57319;56.274;43.980;2024-03-29T08:10:15;99336.88;;;7.57;39.80
69982;BME280;57319;56.274;43.980;2024-03-29T08:12:43;99337.72;;;7.60;39.72
69982;BME280;57319;56.274;43.980;2024-03-29T08:15:09;99332.59;;;7.60;38.93
69982;BME280;57319;56.274;43.980;2024-03-29T08:17:36;99329.19;;;7.60;39.08
69982;BME280;57319;56.274;43.980;2024-03-29T08:20:02;99336.88;;;7.60;39.02
69982;BME280;57319;56.274;43.980;2024-03-29T08:22:29;99328.31;;;7.59;38.70
69982;BME280;57319;56.274;43.980;2024-03-29T08:24:59;99328.28;;;7.67;39.33
69982;BME280;57319;56.274;43.980;2024-03-29T08:27:26;99329.09;;;7.74;39.06
69982;BME280;57319;56.274;43.980;2024-03-29T08:29:51;99330.78;;;7.76;38.44
69982;BME280;57319;56.274;43.980;2024-03-29T08:32:17;99332.41;;;7.84;38.88
69982;BME280;57319;56.274;43.980;2024-03-29T08:34:43;99322.19;;;7.80;38.74
69982;BME280;57319;56.274;43.980;2024-03-29T08:37:09;99331.56;;;7.81;38.18
69982;BME280;57319;56.274;43.980;2024-03-29T08:39:34;99320.44;;;7.87;38.01
69982;BME280;57319;56.274;43.980;2024-03-29T08:42:01;99320.53;;;7.73;38.69
69982;BME280;57319;56.274;43.980;2024-03-29T08:44:31;99317.88;;;7.84;38.83
69982;BME280;57319;56.274;43.980;2024-03-29T08:46:58;99323.84;;;7.86;37.86
69982;BME280;57319;56.274;43.980;2024-03-29T08:49:24;99315.69;;;7.38;39.04
69982;BME280;57319;56.274;43.980;2024-03-29T08:51:50;99326.63;;;7.61;38.05
69982;BME280;57319;56.274;43.980;2024-03-29T08:54:16;99320.41;;;7.89;38.17
69982;BME280;57319;56.274;43.980;2024-03-29T08:56:41;99309.50;;;7.68;38.75
69982;BME280;57319;56.274;43.980;2024-03-29T08:59:07;99319.94;;;7.42;38.28
69982;BME280;57319;56.274;43.980;2024-03-29T09:01:41;99303.75;;;7.32;38.70
69982;BME280;57319;56.274;43.980;2024-03-29T09:04:08;99302.44;;;7.92;38.60
69982;BME280;57319;56.274;43.980;2024-03-29T09:06:37;99304.84;;;8.12;38.19
69982;BME280;57319;56.274;43.980;2024-03-29T09:09:04;99304.66;;;8.27;38.04
69982;BME280;57319;56.274;43.980;2024-03-29T09:11:30;99296.03;;;8.36;37.87
69982;BME280;57319;56.274;43.980;2024-03-29T09:13:56;99280.56;;;8.44;38.63
69982;BME280;57319;56.274;43.980;2024-03-29T09:16:27;99288.19;;;8.52;37.25
69982;BME280;57319;56.274;43.980;2024-03-29T09:18:57;99279.47;;;8.65;37.48
69982;BME280;57319;56.274;43.980;2024-03-29T09:21:23;99273.66;;;8.52;38.02
69982;BME280;57319;56.274;43.980;2024-03-29T09:23:49;99278.75;;;8.55;38.04
69982;BME280;57319;56.274;43.980;2024-03-29T09:26:18;99265.66;;;8.77;38.41
69982;BME280;57319;56.274;43.980;2024-03-29T09:28:44;99266.28;;;8.94;38.43
69982;BME280;57319;56.274;43.980;2024-03-29T09:31:09;99261.97;;;8.96;37.61
69982;BME280;57319;56.274;43.980;2024-03-29T09:33:36;99270.34;;;9.08;37.59
69982;BME280;57319;56.274;43.980;2024-03-29T09:36:02;99263.56;;;9.04;37.99
69982;BME280;57319;56.274;43.980;2024-03-29T09:38:28;99259.94;;;9.17;37.33
69982;BME280;57319;56.274;43.980;2024-03-29T09:41:10;99259.00;;;9.23;37.08
69982;BME280;57319;56.274;43.980;2024-03-29T09:43:39;99246.16;;;9.23;37.97
69982;BME280;57319;56.274;43.980;2024-03-29T09:46:08;99252.19;;;9.20;38.08
69982;BME280;57319;56.274;43.980;2024-03-29T09:48:34;99253.44;;;9.52;37.81
69982;BME280;57319;56.274;43.980;2024-03-29T09:51:06;99242.19;;;9.58;37.35
69982;BME280;57319;56.274;43.980;2024-03-29T09:53:36;99241.09;;;9.73;38.28
69982;BME280;57319;56.274;43.980;2024-03-29T09:56:07;99240.97;;;9.79;38.02
69982;BME280;57319;56.274;43.980;2024-03-29T09:58:35;99225.09;;;10.04;37.37
69982;BME280;57319;56.274;43.980;2024-03-29T10:01:06;99232.00;;;10.47;36.62
69982;BME280;57319;56.274;43.980;2024-03-29T10:03:44;99228.06;;;10.71;36.87
69982;BME280;57319;56.274;43.980;2024-03-29T10:06:11;99222.38;;;10.96;35.83
69982;BME280;57319;56.274;43.980;2024-03-29T10:08:40;99222.38;;;10.96;35.50
69982;BME280;57319;56.274;43.980;2024-03-29T10:11:05;99223.22;;;10.96;35.48
69982;BME280;57319;56.274;43.980;2024-03-29T10:13:32;99219.59;;;11.05;35.58
69982;BME280;57319;56.274;43.980;2024-03-29T10:15:57;99219.88;;;11.29;35.44
69982;BME280;57319;56.274;43.980;2024-03-29T10:18:26;99226.28;;;11.48;34.12
69982;BME280;57319;56.274;43.980;2024-03-29T10:21:06;99224.25;;;11.61;34.27
69982;BME280;57319;56.274;43.980;2024-03-29T10:23:33;99220.97;;;11.54;35.14
69982;BME280;57319;56.274;43.980;2024-03-29T10:26:03;99225.16;;;11.59;34.84
69982;BME280;57319;56.274;43.980;2024-03-29T10:28:36;99212.69;;;11.43;35.16
69982;BME280;57319;56.274;43.980;2024-03-29T10:31:04;99199.84;;;11.40;35.47
69982;BME280;57319;56.274;43.980;2024-03-29T10:33:30;99196.59;;;11.33;35.67
69982;BME280;57319;56.274;43.980;2024-03-29T10:35:57;99207.25;;;11.18;35.06
69982;BME280;57319;56.274;43.980;2024-03-29T10:38:26;99210.06;;;11.45;35.19
69982;BME280;57319;56.274;43.980;2024-03-29T10:40:53;99201.88;;;11.62;34.54
69982;BME280;57319;56.274;43.980;2024-03-29T10:43:21;99198.25;;;12.63;32.82
69982;BME280;57319;56.274;43.980;2024-03-29T10:45:48;99194.97;;;12.86;32.88
69982;BME280;57319;56.274;43.980;2024-03-29T10:48:20;99192.09;;;12.67;32.91
69982;BME280;57319;56.274;43.980;2024-03-29T10:50:48;99201.44;;;13.27;32.36
69982;BME280;57319;56.274;43.980;2024-03-29T10:53:17;99196.38;;;13.50;32.37
69982;BME280;57319;56.274;43.980;2024-03-29T10:56:16;99186.47;;;13.38;32.27
69982;BME280;57319;56.274;43.980;2024-03-29T10:58:49;99192.97;;;13.23;32.42
69982;BME280;57319;56.274;43.980;2024-03-29T11:01:16;99189.44;;;14.03;30.95
69982;BME280;57319;56.274;43.980;2024-03-29T11:03:50;99187.06;;;14.68;29.96
69982;BME280;57319;56.274;43.980;2024-03-29T11:06:23;99181.88;;;14.68;29.94
69982;BME280;57319;56.274;43.980;2024-03-29T11:08:52;99177.25;;;14.76;29.92
69982;BME280;57319;56.274;43.980;2024-03-29T11:11:18;99171.78;;;15.68;28.80
69982;BME280;57319;56.274;43.980;2024-03-29T11:14:03;99167.97;;;16.16;28.13
69982;BME280;57319;56.274;43.980;2024-03-29T11:16:36;99170.69;;;16.51;27.36
69982;BME280;57319;56.274;43.980;2024-03-29T11:19:10;99164.97;;;16.44;27.32
69982;BME280;57319;56.274;43.980;2024-03-29T11:21:56;99156.47;;;15.82;27.65
69982;BME280;57319;56.274;43.980;2024-03-29T11:24:22;99161.16;;;14.90;29.18
69982;BME280;57319;56.274;43.980;2024-03-29T11:26:49;99154.97;;;14.24;30.14
69982;BME280;57319;56.274;43.980;2024-03-29T11:29:22;99153.94;;;13.31;31.32
69982;BME280;57319;56.274;43.980;2024-03-29T11:31:57;99146.41;;;12.71;33.01
69982;BME280;57319;56.274;43.980;2024-03-29T11:34:23;99149.75;;;12.73;33.37
69982;BME280;57319;56.274;43.980;2024-03-29T11:36:48;99143.25;;;12.61;32.85
69982;BME280;57319;56.274;43.980;2024-03-29T11:39:21;99137.72;;;13.26;31.60
69982;BME280;57319;56.274;43.980;2024-03-29T11:41:47;99128.81;;;14.32;30.93
69982;BME280;57319;56.274;43.980;2024-03-29T11:44:16;99125.47;;;14.97;28.75
69982;BME280;57319;56.274;43.980;2024-03-29T11:46:43;99119.44;;;15.78;28.24
69982;BME280;57319;56.274;43.980;2024-03-29T11:49:10;99114.50;;;16.68;26.96
69982;BME280;57319;56.274;43.980;2024-03-29T11:51:36;99109.13;;;17.07;26.82
69982;BME280;57319;56.274;43.980;2024-03-29T11:54:38;99103.56;;;17.15;26.67
69982;BME280;57319;56.274;43.980;2024-03-29T11:57:04;99102.50;;;15.70;27.91
69982;BME280;57319;56.274;43.980;2024-03-29T11:59:31;99104.72;;;16.92;26.92
69982;BME280;57319;56.274;43.980;2024-03-29T12:01:57;99098.63;;;17.77;26.04
69982;BME280;57319;56.274;43.980;2024-03-29T12:04:23;99092.91;;;18.36;24.82
69982;BME280;57319;56.274;43.980;2024-03-29T12:06:49;99088.69;;;19.41;23.58
69982;BME280;57319;56.274;43.980;2024-03-29T12:09:15;99089.16;;;20.20;22.71
69982;BME280;57319;56.274;43.980;2024-03-29T12:11:43;99086.50;;;19.92;23.01
69982;BME280;57319;56.274;43.980;2024-03-29T12:14:15;99085.38;;;19.82;22.92
69982;BME280;57319;56.274;43.980;2024-03-29T12:16:45;99080.28;;;19.21;23.47
69982;BME280;57319;56.274;43.980;2024-03-29T12:19:23;99081.28;;;19.63;22.94
69982;BME280;57319;56.274;43.980;2024-03-29T12:21:50;99083.31;;;20.43;22.53
69982;BME280;57319;56.274;43.980;2024-03-29T12:24:17;99084.72;;;20.34;22.15
69982;BME280;57319;56.274;43.980;2024-03-29T12:26:42;99077.94;;;20.32;22.13
69982;BME280;57319;56.274;43.980;2024-03-29T12:29:08;99071.84;;;19.46;22.89
69982;BME280;57319;56.274;43.980;2024-03-29T12:31:34;99064.97;;;19.45;23.12
69982;BME280;57319;56.274;43.980;2024-03-29T12:34:01;99070.94;;;19.03;23.18
69982;BME280;57319;56.274;43.980;2024-03-29T12:36:27;99068.38;;;19.75;22.48
69982;BME280;57319;56.274;43.980;2024-03-29T12:38:55;99051.34;;;19.83;22.20
69982;BME280;57319;56.274;43.980;2024-03-29T12:41:24;99056.09;;;19.62;22.10
69982;BME280;57319;56.274;43.980;2024-03-29T12:43:53;99042.53;;;18.05;23.46
69982;BME280;57319;56.274;43.980;2024-03-29T12:46:19;99042.91;;;16.44;25.42
69982;BME280;57319;56.274;43.980;2024-03-29T12:48:45;99045.13;;;16.16;25.87
69982;BME280;57319;56.274;43.980;2024-03-29T12:51:10;99032.28;;;15.74;26.25
69982;BME280;57319;56.274;43.980;2024-03-29T12:53:39;99039.34;;;15.71;26.76
69982;BME280;57319;56.274;43.980;2024-03-29T12:56:05;99035.84;;;16.10;26.04
69982;BME280;57319;56.274;43.980;2024-03-29T12:58:31;99029.41;;;16.00;26.13